หน้าหลัก
METAR-TAF:

METAR-TAF

ท่าอากาศยาน :

Pemba, โมซัมบิก

ละติจูด: 12-59S, ลองจิจูด: 040-32E, ความสูง: 101 ม.

การสังเกตสภาพอากาศปัจจุบัน

รายงานได้ทำขึ้นเมื่อ 54 นาทีที่แล้ว ณ เวลา 18:00 UTC
ลม 12 นอตจากใต้
อุณหภูมิ 28°C
ความชื้น 70%
ความกดอากาศ 1016 hPa
ทัศนวิสัย 10 กม. หรือมากกว่า
มีเมฆน้อยที่ความสูง 2000 ฟุต
มีเมฆเป็นส่วนมากเว้นเป็นระยะที่ความสูง 10000 ฟุต
มีเมฆเป็นส่วนมากเว้นเป็นระยะ

METAR: FQPB 151800Z 18012KT 9999 FEW020 BKN100 BKN/// 28/22 Q1016

เวลา: 20:54 (18:54 UTC)

การพยากรณ์

รายงานได้ทำขึ้นเมื่อ 2 ชั่วโมงและ 54 นาทีที่แล้ว ณ เวลา 16:00 UTC
การพยากรณ์มีผลตั้งแต่วันที่ 15 ณ เวลา 18 UTC จนถึงวันที่ 16 ณ เวลา 18 UTC
ลม 12 นอตจากใต้
ทัศนวิสัย 10 กม. หรือมากกว่า
มีเมฆน้อยที่ความสูง 2000 ฟุต
กำลังกลายเป็น
ตั้งแต่วันที่ 16 ณ เวลา 00 UTC จนถึงวันที่ 16 ณ เวลา 02 UTC
ลม 10 นอตจากตะวันตกเฉียงใต้
กำลังกลายเป็น
ตั้งแต่วันที่ 16 ณ เวลา 13 UTC จนถึงวันที่ 16 ณ เวลา 15 UTC
ลม 15 นอตจากใต้

TAF: FQPB 151600Z 1518/1618 17012KT 9999 FEW020 TX31/1613Z TN23/1602Z BECMG 1600/1602 23010KT BECMG 1613/1615 17015KT

สังเกตการณ์สภาพอากาศและพยากรณ์อากาศของสนามบินมากกว่า 4000 แห่ง (รายงาน METAR และ TAF).

สถานีที่ดูได้จะแสดงไว้ด้วยจุดสีเหลืองและสีแดงบนแผนที่.

เลื่อนเมาส์ไปเหนือจุดเพื่อดูชื่อสถานี.

แล้วคลิกเพื่อดูสังเกตการณ์และการพยากรณ์สภาพอากาศ.

ในการเปลี่ยนแผนที่: คลิกที่ปุ่มสีเขียวที่มีกากบาทสีดำเพื่อซูมเข้า; ที่ปุ่มสีเขียวที่มีขีดเพื่อซูมออก; หรือที่ลูกศรสีเขียวเพื่อไปยังแผนที่ที่อยู่ติดกัน.


METAR-TAF: